Other Surface Observations
Issued by NWS Great Falls, MT

Home | Current Version | Previous Version | Text Only | Print | Product List | Glossary On
Versions: 1 2 3 4 5 6 7 8 9 10 11 12 13 14 15 16 17 18 19 20 21 22 23 24 25 26 27 28 29 30 31 32 33 34 35 36 37 38 39 40 41 42 43 44 45 46 47 48 49 50
000
SXUS55 KTFX 240229
OSOTFX
AREA AWOS OBSERVATIONS
NATIONAL WEATHER SERVICE GREAT FALLS MT
0829 PM MDT TUE AUG 23 2016

METAR KPO1 240230Z AUTO 28016G23KT 10SM 18/10 A2992 RMK POPLAR
METAR K1S3 240230Z AUTO 29009G16KT 10SM 21/05 A3006 RMK FORSYTH
METAR KS71 240230Z AUTO 28017G22KT 10SM 16/10 A3005 RMK CHINOOK
METAR K38S 240230Z AUTO 29006KT 10SM 15/01 A3021 RMK DEER LODGE
METAR K6S5 240230Z AUTO 00000KT 10SM 19/03 A3015 RMK HAMILTON
METAR KS59 240230Z AUTO 34004KT 10SM 20/06 A3016 RMK LIBBY
METAR K88M 240230Z AUTO 29003KT 10SM 19/06 A3018 RMK EUREKA



USA.gov is the U.S. government's official web portal to all federal, state and local government web resources and services.